createdAt,value
2022-10-04T00:00:39.187Z,17.31
2022-10-04T00:01:39.549Z,17.33
2022-10-04T00:02:39.593Z,17.31
2022-10-04T00:03:39.720Z,17.33
2022-10-04T00:04:39.893Z,17.31
2022-10-04T00:05:40.048Z,17.33
2022-10-04T00:06:40.207Z,17.34
2022-10-04T00:07:40.387Z,17.31
2022-10-04T00:08:40.527Z,17.31
2022-10-04T00:09:40.698Z,17.33
2022-10-04T00:10:40.897Z,17.31
2022-10-04T00:11:41.298Z,17.30
2022-10-04T00:12:41.250Z,17.30
2022-10-04T00:13:41.407Z,17.31
2022-10-04T00:14:41.577Z,17.30
2022-10-04T00:15:41.747Z,17.30
2022-10-04T00:16:41.937Z,17.31
2022-10-04T00:17:42.107Z,17.30
2022-10-04T00:18:42.267Z,17.31
2022-10-04T00:19:42.446Z,17.30
2022-10-04T00:20:42.617Z,17.30
2022-10-04T00:21:43.089Z,17.30
2022-10-04T00:22:42.968Z,17.29
2022-10-04T00:23:43.115Z,17.23
2022-10-04T00:24:43.307Z,17.26
2022-10-04T00:25:43.467Z,17.29
2022-10-04T00:26:43.649Z,17.33
2022-10-04T00:27:43.818Z,17.36
2022-10-04T00:28:43.977Z,17.34
2022-10-04T00:29:44.138Z,17.38
2022-10-04T00:30:44.338Z,17.38
2022-10-04T00:31:44.814Z,17.36
2022-10-04T00:32:44.686Z,17.33
2022-10-04T00:33:44.848Z,17.30
2022-10-04T00:34:45.019Z,17.31
2022-10-04T00:35:45.177Z,17.31
2022-10-04T00:36:45.348Z,17.31
2022-10-04T00:37:45.522Z,17.30
2022-10-04T00:38:45.679Z,17.33
2022-10-04T00:39:45.868Z,17.31
2022-10-04T00:40:46.028Z,17.31
2022-10-04T00:41:46.199Z,17.29
2022-10-04T00:42:46.398Z,17.29
2022-10-04T00:43:46.568Z,17.30
2022-10-04T00:44:46.728Z,17.27
2022-10-04T00:45:46.967Z,17.27
2022-10-04T00:46:47.070Z,17.26
2022-10-04T00:47:47.248Z,17.26
2022-10-04T00:48:47.408Z,17.29
2022-10-04T00:49:47.581Z,17.30
2022-10-04T00:50:47.792Z,17.29
2022-10-04T00:51:47.938Z,17.24
2022-10-04T00:52:48.186Z,17.26
2022-10-04T00:53:48.289Z,17.26
2022-10-04T00:54:48.448Z,17.24
2022-10-04T00:55:48.621Z,17.26
2022-10-04T00:56:48.828Z,17.29
2022-10-04T00:57:48.998Z,17.29
2022-10-04T00:58:49.169Z,17.27
2022-10-04T00:59:49.342Z,17.29
2022-10-04T01:00:49.541Z,17.24
2022-10-04T01:01:49.697Z,17.27
2022-10-04T01:02:49.867Z,17.27
2022-10-04T01:03:49.998Z,17.29
2022-10-04T01:04:50.159Z,17.29
2022-10-04T01:05:50.349Z,17.27
2022-10-04T01:06:50.533Z,17.27
2022-10-04T01:07:50.720Z,17.26
2022-10-04T01:08:50.882Z,17.27
2022-10-04T01:09:51.039Z,17.26
2022-10-04T01:10:51.201Z,17.23
2022-10-04T01:11:51.436Z,17.15
2022-10-04T01:12:51.541Z,17.14
2022-10-04T01:13:51.730Z,17.09
2022-10-04T01:14:51.891Z,17.12
2022-10-04T01:15:52.167Z,17.09
2022-10-04T01:16:52.239Z,17.09
2022-10-04T01:17:52.481Z,17.05
2022-10-04T01:18:52.598Z,17.08
2022-10-04T01:19:52.760Z,17.05
2022-10-04T01:20:52.932Z,17.06
2022-10-04T01:21:53.110Z,17.05
2022-10-04T01:22:53.278Z,17.04
2022-10-04T01:23:53.449Z,17.04
2022-10-04T01:24:53.609Z,17.02
2022-10-04T01:25:53.769Z,17.02
2022-10-04T01:26:53.939Z,17.02
2022-10-04T01:27:54.217Z,16.99
2022-10-04T01:28:54.287Z,16.97
2022-10-04T01:29:54.470Z,16.94
2022-10-04T01:30:54.634Z,16.97
2022-10-04T01:31:54.872Z,16.96
2022-10-04T01:32:55.009Z,16.99
2022-10-04T01:33:55.178Z,16.97
2022-10-04T01:34:55.351Z,16.97
2022-10-04T01:35:55.508Z,17.02
2022-10-04T01:36:55.681Z,17.05
2022-10-04T01:37:55.868Z,16.99
2022-10-04T01:38:56.039Z,16.99
2022-10-04T01:39:56.218Z,16.94
2022-10-04T01:40:56.376Z,16.94
2022-10-04T01:41:56.537Z,16.94
2022-10-04T01:42:56.717Z,16.90
2022-10-04T01:43:56.878Z,16.90
2022-10-04T01:44:57.040Z,16.89
2022-10-04T01:45:57.258Z,16.90
2022-10-04T01:46:57.389Z,16.90
2022-10-04T01:47:57.569Z,16.86
2022-10-04T01:48:57.750Z,16.87
2022-10-04T01:49:57.919Z,16.87
2022-10-04T01:50:58.081Z,16.86
2022-10-04T01:51:58.249Z,16.84
2022-10-04T01:52:58.429Z,16.84
2022-10-04T01:53:58.637Z,16.86
2022-10-04T01:54:58.770Z,16.89
2022-10-04T01:55:58.933Z,16.87
2022-10-04T01:56:59.110Z,16.89
2022-10-04T01:57:59.300Z,16.90
2022-10-04T01:58:59.429Z,16.91
2022-10-04T01:59:59.604Z,16.89
2022-10-04T02:00:59.848Z,16.83
2022-10-04T02:01:59.945Z,16.81
2022-10-04T02:03:00.140Z,16.75
2022-10-04T02:04:00.289Z,16.78
2022-10-04T02:05:00.500Z,16.76
2022-10-04T02:06:00.639Z,16.75
2022-10-04T02:07:00.801Z,16.76
2022-10-04T02:08:00.981Z,16.71
2022-10-04T02:09:01.119Z,16.72
2022-10-04T02:10:01.280Z,16.68
2022-10-04T02:11:01.449Z,16.71
2022-10-04T02:12:01.630Z,16.71
2022-10-04T02:13:01.791Z,16.72
2022-10-04T02:14:01.969Z,16.74
2022-10-04T02:15:02.139Z,16.76
2022-10-04T02:16:02.332Z,16.72
2022-10-04T02:17:02.471Z,16.74
2022-10-04T02:18:02.648Z,16.74
2022-10-04T02:19:02.819Z,16.76
2022-10-04T02:20:02.995Z,16.78
2022-10-04T02:21:03.167Z,16.74
2022-10-04T02:22:03.354Z,16.71
2022-10-04T02:23:03.550Z,16.71
2022-10-04T02:24:03.691Z,16.74
2022-10-04T02:25:03.860Z,16.74
2022-10-04T02:26:04.033Z,16.71
2022-10-04T02:27:04.182Z,16.68
2022-10-04T02:28:04.428Z,16.71
2022-10-04T02:29:04.509Z,16.68
2022-10-04T02:30:04.685Z,16.69
2022-10-04T02:31:04.901Z,16.66
2022-10-04T02:32:05.055Z,16.68
2022-10-04T02:33:05.230Z,16.68
2022-10-04T02:34:05.390Z,16.71
2022-10-04T02:35:05.561Z,16.72
2022-10-04T02:36:05.730Z,16.72
2022-10-04T02:37:05.891Z,16.74
2022-10-04T02:38:06.070Z,16.74
2022-10-04T02:39:06.240Z,16.76
2022-10-04T02:40:06.400Z,16.79
2022-10-04T02:41:06.588Z,16.75
2022-10-04T02:42:06.739Z,16.76
2022-10-04T02:43:06.912Z,16.74
2022-10-04T02:44:07.083Z,16.71
2022-10-04T02:45:07.242Z,16.74
2022-10-04T02:46:07.482Z,16.71
2022-10-04T02:47:07.600Z,16.71
2022-10-04T02:48:07.761Z,16.65
2022-10-04T02:49:07.946Z,16.66
2022-10-04T02:50:08.100Z,16.65
2022-10-04T02:51:08.270Z,16.65
2022-10-04T02:52:08.468Z,16.66
2022-10-04T02:53:08.593Z,16.64
2022-10-04T02:54:08.752Z,16.64
2022-10-04T02:55:08.915Z,16.64
2022-10-04T02:56:09.081Z,16.65
2022-10-04T02:57:09.260Z,16.68
2022-10-04T02:58:09.420Z,16.65
2022-10-04T02:59:09.647Z,16.65
2022-10-04T03:00:09.790Z,16.64
2022-10-04T03:01:10.018Z,16.65
2022-10-04T03:02:10.220Z,16.66
2022-10-04T03:03:10.321Z,16.65
2022-10-04T03:04:10.482Z,16.60
2022-10-04T03:05:10.642Z,16.58
2022-10-04T03:06:10.839Z,16.58
2022-10-04T03:07:11.011Z,16.58
2022-10-04T03:08:11.179Z,16.56
2022-10-04T03:09:11.339Z,16.57
2022-10-04T03:10:11.522Z,16.60
2022-10-04T03:11:11.691Z,16.60
2022-10-04T03:12:11.881Z,16.60
2022-10-04T03:13:12.010Z,16.57
2022-10-04T03:14:12.188Z,16.57
2022-10-04T03:15:12.361Z,16.58
2022-10-04T03:16:12.596Z,16.61
2022-10-04T03:17:12.719Z,16.61
2022-10-04T03:18:12.891Z,16.60
2022-10-04T03:19:13.061Z,16.61
2022-10-04T03:20:13.222Z,16.61
2022-10-04T03:21:13.390Z,16.61
2022-10-04T03:22:13.610Z,16.65
2022-10-04T03:23:13.740Z,16.65
2022-10-04T03:24:13.915Z,16.68
2022-10-04T03:25:14.060Z,16.66
2022-10-04T03:26:14.238Z,16.66
2022-10-04T03:27:14.401Z,16.65
2022-10-04T03:28:14.615Z,16.61
2022-10-04T03:29:14.744Z,16.61
2022-10-04T03:30:14.945Z,16.61
2022-10-04T03:31:15.129Z,16.61
2022-10-04T03:32:15.271Z,16.61
2022-10-04T03:33:15.430Z,16.60
2022-10-04T03:34:15.610Z,16.60
2022-10-04T03:35:15.762Z,16.56
2022-10-04T03:36:15.943Z,16.53
2022-10-04T03:37:16.111Z,16.54
2022-10-04T03:38:16.269Z,16.56
2022-10-04T03:39:16.423Z,16.57
2022-10-04T03:40:16.602Z,16.56
2022-10-04T03:41:16.772Z,16.54
2022-10-04T03:42:16.963Z,16.56
2022-10-04T03:43:17.121Z,16.54
2022-10-04T03:44:17.282Z,16.53
2022-10-04T03:45:17.454Z,16.51
2022-10-04T03:46:17.681Z,16.51
2022-10-04T03:47:17.802Z,16.51
2022-10-04T03:48:17.982Z,16.49
2022-10-04T03:49:18.152Z,16.49
2022-10-04T03:50:18.311Z,16.49
2022-10-04T03:51:18.483Z,16.50
2022-10-04T03:52:18.672Z,16.51
2022-10-04T03:53:18.819Z,16.50
2022-10-04T03:54:18.991Z,16.49
2022-10-04T03:55:19.155Z,16.50
2022-10-04T03:56:19.322Z,16.50
2022-10-04T03:57:19.511Z,16.54
2022-10-04T03:58:19.680Z,16.56
2022-10-04T03:59:19.832Z,16.58
2022-10-04T04:00:20.002Z,16.58
2022-10-04T04:01:20.255Z,16.61
2022-10-04T04:02:20.430Z,16.60
2022-10-04T04:03:20.511Z,16.58
2022-10-04T04:04:20.712Z,16.60
2022-10-04T04:05:20.862Z,16.58
2022-10-04T04:06:21.044Z,16.60
2022-10-04T04:07:21.214Z,16.60
2022-10-04T04:08:21.393Z,16.57
2022-10-04T04:09:21.552Z,16.57
2022-10-04T04:10:21.729Z,16.58
2022-10-04T04:11:21.882Z,16.61
2022-10-04T04:12:22.062Z,16.61
2022-10-04T04:13:22.224Z,16.60
2022-10-04T04:14:22.389Z,16.61
2022-10-04T04:15:22.563Z,16.61
2022-10-04T04:16:22.803Z,16.61
2022-10-04T04:17:22.911Z,16.64
2022-10-04T04:18:23.062Z,16.61
2022-10-04T04:19:23.213Z,16.65
2022-10-04T04:20:23.400Z,16.66
2022-10-04T04:21:23.551Z,16.66
2022-10-04T04:22:23.732Z,16.68
2022-10-04T04:23:23.862Z,16.66
2022-10-04T04:24:24.063Z,16.64
2022-10-04T04:25:24.241Z,16.64
2022-10-04T04:26:24.403Z,16.61
2022-10-04T04:27:28.949Z,16.57
2022-10-04T04:28:24.761Z,16.54
2022-10-04T04:29:24.923Z,16.54
2022-10-04T04:30:25.102Z,16.51
2022-10-04T04:31:25.331Z,16.47
2022-10-04T04:32:25.490Z,16.46
2022-10-04T04:33:25.652Z,16.42
2022-10-04T04:34:25.823Z,16.39
2022-10-04T04:35:25.978Z,16.36
2022-10-04T04:36:26.183Z,16.38
2022-10-04T04:37:26.342Z,16.36
2022-10-04T04:38:26.518Z,16.35
2022-10-04T04:39:26.662Z,16.33
2022-10-04T04:40:26.864Z,16.29
2022-10-04T04:41:27.042Z,16.28
2022-10-04T04:42:27.232Z,16.24
2022-10-04T04:43:27.362Z,16.24
2022-10-04T04:44:27.519Z,16.20
2022-10-04T04:45:27.713Z,16.17
2022-10-04T04:46:28.373Z,16.17
2022-10-04T04:47:28.058Z,16.20
2022-10-04T04:48:28.213Z,16.21
2022-10-04T04:49:28.374Z,16.26
2022-10-04T04:50:28.532Z,16.28
2022-10-04T04:51:28.692Z,16.28
2022-10-04T04:52:28.890Z,16.29
2022-10-04T04:53:29.022Z,16.29
2022-10-04T04:54:29.195Z,16.35
2022-10-04T04:55:39.865Z,16.32
2022-10-04T04:56:30.551Z,16.35
2022-10-04T04:57:29.722Z,16.38
2022-10-04T04:58:29.888Z,16.39
2022-10-04T04:59:30.042Z,16.39
2022-10-04T05:00:30.254Z,16.42
2022-10-04T05:01:30.490Z,16.43
2022-10-04T05:02:30.629Z,16.43
2022-10-04T05:03:30.773Z,16.46
2022-10-04T05:04:30.963Z,16.47
2022-10-04T05:05:31.138Z,16.46
2022-10-04T05:06:31.313Z,16.43
2022-10-04T05:07:31.534Z,16.46
2022-10-04T05:08:31.711Z,16.42
2022-10-04T05:09:31.853Z,16.46
2022-10-04T05:10:32.044Z,16.49
2022-10-04T05:11:32.202Z,16.49
2022-10-04T05:12:32.382Z,16.50
2022-10-04T05:13:32.522Z,16.49
2022-10-04T05:14:32.694Z,16.53
2022-10-04T05:15:32.843Z,16.50
2022-10-04T05:16:33.049Z,16.50
2022-10-04T05:17:33.239Z,16.53
2022-10-04T05:18:33.449Z,16.53
2022-10-04T05:19:33.594Z,16.50
2022-10-04T05:20:33.774Z,16.54
2022-10-04T05:21:33.933Z,16.57
2022-10-04T05:22:34.126Z,16.58
2022-10-04T05:23:34.293Z,16.58
2022-10-04T05:24:34.433Z,16.57
2022-10-04T05:25:34.626Z,16.64
2022-10-04T05:26:34.820Z,16.66
2022-10-04T05:27:34.991Z,16.69
2022-10-04T05:28:35.199Z,16.72
2022-10-04T05:29:35.313Z,16.71
2022-10-04T05:30:35.507Z,16.76
2022-10-04T05:31:35.720Z,16.79
2022-10-04T05:32:35.863Z,16.84
2022-10-04T05:33:36.043Z,16.84
2022-10-04T05:34:36.232Z,16.89
2022-10-04T05:35:36.423Z,16.93
2022-10-04T05:36:36.606Z,16.91
2022-10-04T05:37:36.823Z,16.93
2022-10-04T05:38:36.961Z,16.93
2022-10-04T05:39:37.116Z,16.94
2022-10-04T05:40:37.293Z,16.96
2022-10-04T05:41:37.476Z,16.97
2022-10-04T05:42:37.688Z,16.96
2022-10-04T05:43:37.835Z,16.97
2022-10-04T05:44:38.013Z,16.99
2022-10-04T05:45:38.245Z,17.04
2022-10-04T05:46:42.010Z,17.04
2022-10-04T05:47:39.543Z,17.05
2022-10-04T05:48:38.711Z,17.04
2022-10-04T05:49:38.893Z,17.06
2022-10-04T05:50:39.088Z,17.09
2022-10-04T05:51:39.273Z,17.14
2022-10-04T05:52:39.446Z,17.14
2022-10-04T05:53:39.634Z,17.15
2022-10-04T05:54:39.784Z,17.16
2022-10-04T05:55:39.984Z,17.19
2022-10-04T05:56:40.155Z,17.22
2022-10-04T05:57:40.333Z,17.24
2022-10-04T05:58:40.483Z,17.24
2022-10-04T05:59:40.684Z,17.24
2022-10-04T06:00:40.866Z,17.26
2022-10-04T06:01:41.361Z,17.24
2022-10-04T06:02:41.316Z,17.27
2022-10-04T06:03:41.384Z,17.30
2022-10-04T06:04:41.544Z,17.33
2022-10-04T06:05:41.738Z,17.36
2022-10-04T06:06:41.896Z,17.39
2022-10-04T06:07:42.098Z,17.44
2022-10-04T06:08:42.292Z,17.45
2022-10-04T06:09:42.471Z,17.49
2022-10-04T06:10:42.634Z,17.49
2022-10-04T06:11:43.124Z,17.49
2022-10-04T06:12:44.561Z,17.51
2022-10-04T06:13:43.129Z,17.56
2022-10-04T06:14:43.304Z,17.57
2022-10-04T06:15:43.495Z,17.63
2022-10-04T06:16:43.736Z,17.65
2022-10-04T06:17:43.873Z,17.63
2022-10-04T06:18:44.014Z,17.64
2022-10-04T06:19:44.192Z,17.67
2022-10-04T06:20:44.386Z,17.65
2022-10-04T06:21:44.903Z,17.64
2022-10-04T06:22:44.776Z,17.67
2022-10-04T06:23:44.901Z,17.70
2022-10-04T06:24:45.075Z,17.72
2022-10-04T06:25:45.272Z,17.71
2022-10-04T06:26:45.447Z,17.76
2022-10-04T06:27:45.653Z,17.79
2022-10-04T06:28:45.795Z,17.80
2022-10-04T06:29:45.982Z,17.83
2022-10-04T06:30:46.269Z,17.86
2022-10-04T06:31:46.555Z,17.89
2022-10-04T06:32:46.587Z,17.90
2022-10-04T06:33:46.724Z,17.90
2022-10-04T06:34:46.944Z,17.92
2022-10-04T06:35:47.102Z,17.97
2022-10-04T06:36:47.254Z,17.95
2022-10-04T06:37:47.405Z,17.97
2022-10-04T06:38:47.557Z,17.98
2022-10-04T06:39:47.748Z,18.01
2022-10-04T06:40:47.894Z,18.03
2022-10-04T06:41:48.084Z,18.03
2022-10-04T06:42:48.294Z,18.08
2022-10-04T06:43:48.435Z,18.13
2022-10-04T06:44:48.655Z,18.15
2022-10-04T06:45:48.819Z,18.16
2022-10-04T06:46:48.966Z,18.18
2022-10-04T06:47:49.183Z,18.23
2022-10-04T06:48:49.325Z,18.31
2022-10-04T06:49:49.530Z,18.33
2022-10-04T06:50:49.665Z,18.38
2022-10-04T06:51:49.839Z,18.43
2022-10-04T06:52:49.995Z,18.53
2022-10-04T06:53:50.175Z,18.59
2022-10-04T06:54:50.345Z,18.68
2022-10-04T06:55:50.526Z,18.78
2022-10-04T06:56:50.706Z,18.81
2022-10-04T06:57:50.923Z,18.90
2022-10-04T06:58:51.087Z,18.98
2022-10-04T06:59:51.247Z,19.02
2022-10-04T07:00:51.480Z,19.07
2022-10-04T07:01:51.637Z,19.14
2022-10-04T07:02:51.908Z,19.21
2022-10-04T07:03:51.986Z,19.27
2022-10-04T07:05:08.873Z,19.30
2022-10-04T07:05:53.325Z,19.33
2022-10-04T07:06:52.486Z,19.33
2022-10-04T07:07:52.697Z,19.36
2022-10-04T07:08:52.869Z,19.33
2022-10-04T07:09:53.016Z,19.30
2022-10-04T07:10:53.195Z,19.33
2022-10-04T07:11:53.376Z,19.36
2022-10-04T07:12:53.585Z,19.37
2022-10-04T07:13:53.779Z,19.36
2022-10-04T07:14:53.957Z,19.37
2022-10-04T07:15:54.146Z,19.37
2022-10-04T07:16:54.276Z,19.36
2022-10-04T07:17:54.438Z,19.34
2022-10-04T07:18:54.618Z,19.34
2022-10-04T07:19:54.765Z,19.30
2022-10-04T07:20:54.956Z,19.30
2022-10-04T07:21:55.160Z,19.31
2022-10-04T07:22:55.287Z,19.30
2022-10-04T07:23:55.469Z,19.33
2022-10-04T07:24:55.688Z,19.33
2022-10-04T07:25:55.837Z,19.36
2022-10-04T07:26:55.990Z,19.36
2022-10-04T07:27:56.246Z,19.37
2022-10-04T07:28:56.349Z,19.41
2022-10-04T07:29:56.606Z,19.47
2022-10-04T07:30:56.738Z,19.40
2022-10-04T07:31:56.875Z,19.39
2022-10-04T07:32:57.037Z,19.34
2022-10-04T07:33:57.196Z,19.36
2022-10-04T07:34:57.357Z,19.37
2022-10-04T07:35:57.527Z,19.41
2022-10-04T07:36:57.668Z,19.39
2022-10-04T07:37:57.867Z,19.47
2022-10-04T07:38:58.039Z,19.52
2022-10-04T07:39:58.208Z,19.56
2022-10-04T07:40:58.401Z,19.62
2022-10-04T07:41:58.598Z,19.62
2022-10-04T07:42:58.766Z,19.67
2022-10-04T07:43:58.953Z,19.73
2022-10-04T07:44:59.118Z,19.76
2022-10-04T07:45:59.365Z,19.81
2022-10-04T07:46:59.468Z,19.85
2022-10-04T07:47:59.669Z,19.89
2022-10-04T07:48:59.838Z,19.96
2022-10-04T07:50:00.026Z,19.94
2022-10-04T07:51:00.188Z,19.94
2022-10-04T07:52:00.420Z,19.89
2022-10-04T07:53:00.578Z,19.84
2022-10-04T07:54:00.718Z,19.81
2022-10-04T07:55:00.899Z,19.71
2022-10-04T07:56:01.085Z,19.64
2022-10-04T07:57:01.276Z,19.62
2022-10-04T07:58:01.468Z,19.59
2022-10-04T07:59:01.617Z,19.64
2022-10-04T08:00:01.797Z,19.71
2022-10-04T08:01:01.989Z,19.82
2022-10-04T08:02:02.183Z,19.92
2022-10-04T08:03:02.897Z,20.02
2022-10-04T08:04:02.499Z,20.11
2022-10-04T08:05:02.678Z,20.24
2022-10-04T08:06:02.859Z,20.34
2022-10-04T08:07:03.065Z,20.43
2022-10-04T08:08:03.230Z,20.51
2022-10-04T08:09:03.419Z,20.50
2022-10-04T08:10:03.597Z,20.48
2022-10-04T08:11:03.776Z,20.55
2022-10-04T08:12:03.959Z,20.59
2022-10-04T08:13:04.161Z,20.66
2022-10-04T08:14:04.312Z,20.75
2022-10-04T08:15:04.490Z,20.84
2022-10-04T08:16:04.715Z,20.92
2022-10-04T08:17:04.838Z,20.96
2022-10-04T08:18:05.039Z,21.02
2022-10-04T08:19:05.213Z,21.05
2022-10-04T08:20:05.353Z,21.02
2022-10-04T08:21:05.529Z,21.02
2022-10-04T08:22:05.742Z,20.96
2022-10-04T08:23:05.890Z,20.92
2022-10-04T08:24:06.048Z,20.87
2022-10-04T08:25:06.231Z,20.80
2022-10-04T08:26:06.410Z,20.80
2022-10-04T08:27:06.590Z,20.78
2022-10-04T08:28:06.840Z,20.75
2022-10-04T08:29:06.952Z,20.70
2022-10-04T08:30:07.141Z,20.62
2022-10-04T08:31:07.340Z,20.51
2022-10-04T08:32:07.491Z,20.48
2022-10-04T08:33:07.693Z,20.43
2022-10-04T08:34:07.857Z,20.39
2022-10-04T08:35:08.039Z,20.44
2022-10-04T08:36:08.212Z,20.51
2022-10-04T08:37:08.413Z,20.62
2022-10-04T08:38:08.561Z,20.69
2022-10-04T08:39:08.751Z,20.74
2022-10-04T08:40:12.803Z,20.81
2022-10-04T08:41:09.141Z,20.90
2022-10-04T08:42:09.331Z,20.97
2022-10-04T08:43:09.504Z,21.03
2022-10-04T08:44:09.681Z,21.05
2022-10-04T08:45:09.865Z,21.07
2022-10-04T08:46:10.146Z,21.09
2022-10-04T08:47:10.231Z,21.14
2022-10-04T08:48:10.402Z,21.22
2022-10-04T08:49:10.589Z,21.29
2022-10-04T08:50:10.782Z,21.33
2022-10-04T08:51:10.933Z,21.27
2022-10-04T08:52:11.124Z,21.17
2022-10-04T08:53:11.313Z,21.14
2022-10-04T08:54:11.442Z,21.12
2022-10-04T08:55:11.653Z,21.12
2022-10-04T08:56:11.796Z,21.06
2022-10-04T08:57:15.859Z,21.09
2022-10-04T08:58:12.142Z,21.09
2022-10-04T08:59:12.334Z,21.07
2022-10-04T09:00:12.524Z,21.05
2022-10-04T09:01:12.756Z,21.07
2022-10-04T09:02:12.877Z,21.06
2022-10-04T09:03:13.012Z,21.03
2022-10-04T09:04:13.193Z,21.00
2022-10-04T09:05:13.381Z,21.03
2022-10-04T09:06:13.564Z,21.11
2022-10-04T09:07:13.764Z,21.12
2022-10-04T09:08:13.914Z,21.09
2022-10-04T09:09:14.109Z,21.06
2022-10-04T09:10:14.284Z,21.09
2022-10-04T09:11:14.476Z,21.07
2022-10-04T09:12:14.674Z,21.07
2022-10-04T09:13:14.844Z,21.11
2022-10-04T09:14:15.035Z,21.15
2022-10-04T09:15:15.214Z,21.21
2022-10-04T09:16:15.425Z,21.24
2022-10-04T09:17:19.798Z,21.32
2022-10-04T09:18:16.741Z,21.36
2022-10-04T09:19:15.886Z,21.37
2022-10-04T09:20:37.291Z,21.36
2022-10-04T09:21:17.254Z,21.32
2022-10-04T09:22:16.461Z,21.35
2022-10-04T09:23:16.605Z,21.40
2022-10-04T09:24:16.822Z,21.46
2022-10-04T09:25:16.966Z,21.55
2022-10-04T09:26:17.143Z,21.62
2022-10-04T09:27:31.485Z,21.73
2022-10-04T09:28:18.541Z,21.83
2022-10-04T09:29:17.667Z,22.04
2022-10-04T09:30:17.855Z,22.28
2022-10-04T09:31:18.114Z,22.54
2022-10-04T09:32:18.225Z,22.73
2022-10-04T09:33:18.356Z,23.00
2022-10-04T09:34:18.545Z,23.27
2022-10-04T09:35:18.727Z,23.50
2022-10-04T09:36:18.919Z,23.63
2022-10-04T09:37:19.106Z,23.68
2022-10-04T09:38:19.297Z,23.73
2022-10-04T09:39:29.881Z,23.80
2022-10-04T09:40:20.664Z,23.83
2022-10-04T09:41:19.825Z,23.88
2022-10-04T09:42:20.015Z,23.99
2022-10-04T09:43:20.206Z,24.13
2022-10-04T09:44:20.348Z,24.26
2022-10-04T09:45:20.566Z,24.45
2022-10-04T09:46:20.745Z,24.58
2022-10-04T09:47:20.946Z,24.55
2022-10-04T09:48:21.041Z,24.40
2022-10-04T09:49:21.246Z,24.36
2022-10-04T09:50:21.388Z,24.45
2022-10-04T09:51:21.577Z,24.58
2022-10-04T09:52:21.748Z,24.74
2022-10-04T09:53:21.893Z,24.81
2022-10-04T09:54:22.068Z,24.85
2022-10-04T09:55:22.259Z,24.89
2022-10-04T09:56:22.429Z,24.91
2022-10-04T09:57:22.608Z,24.96
2022-10-04T09:58:22.758Z,25.03
2022-10-04T09:59:22.931Z,25.03
2022-10-04T10:00:23.112Z,25.04
2022-10-04T10:01:23.332Z,25.01
2022-10-04T10:02:23.507Z,25.06
2022-10-04T10:03:23.670Z,24.95
2022-10-04T10:04:23.779Z,24.95
2022-10-04T10:05:23.956Z,24.93
2022-10-04T10:06:24.110Z,24.88
2022-10-04T10:07:24.299Z,24.88
2022-10-04T10:08:28.138Z,24.89
2022-10-04T10:09:24.641Z,24.95
2022-10-04T10:10:24.812Z,24.99
2022-10-04T10:11:25.011Z,25.07
2022-10-04T10:12:25.180Z,25.16
2022-10-04T10:13:28.771Z,25.25
2022-10-04T10:14:26.499Z,25.32
2022-10-04T10:15:25.659Z,25.38
2022-10-04T10:16:25.915Z,25.46
2022-10-04T10:17:26.050Z,25.53
2022-10-04T10:18:26.172Z,25.54
2022-10-04T10:19:28.404Z,25.55
2022-10-04T10:20:26.516Z,25.58
2022-10-04T10:21:26.681Z,25.60
2022-10-04T10:22:26.852Z,25.50
2022-10-04T10:23:27.024Z,25.41
2022-10-04T10:24:27.181Z,25.35
2022-10-04T10:25:27.382Z,25.36
2022-10-04T10:26:27.522Z,25.38
2022-10-04T10:27:27.723Z,25.40
2022-10-04T10:28:27.915Z,25.38
2022-10-04T10:29:28.063Z,25.41
2022-10-04T10:30:28.202Z,25.47
2022-10-04T10:31:28.411Z,25.47
2022-10-04T10:32:28.543Z,25.43
2022-10-04T10:33:28.704Z,25.43
2022-10-04T10:34:28.882Z,25.44
2022-10-04T10:35:29.054Z,25.38
2022-10-04T10:36:29.217Z,25.36
2022-10-04T10:37:29.401Z,25.35
2022-10-04T10:38:29.588Z,25.35
2022-10-04T10:39:29.742Z,25.33
2022-10-04T10:40:29.910Z,25.29
2022-10-04T10:41:30.078Z,25.28
2022-10-04T10:42:30.264Z,25.17
2022-10-04T10:43:30.434Z,25.10
2022-10-04T10:44:30.594Z,25.03
2022-10-04T10:45:30.765Z,24.98
2022-10-04T10:46:30.969Z,24.88
2022-10-04T10:47:31.127Z,24.86
2022-10-04T10:48:31.265Z,24.80
2022-10-04T10:49:31.456Z,24.77
2022-10-04T10:50:31.635Z,24.73
2022-10-04T10:51:31.801Z,24.69
2022-10-04T10:52:32.006Z,24.63
2022-10-04T10:53:32.156Z,24.58
2022-10-04T10:54:32.324Z,24.55
2022-10-04T10:55:32.476Z,24.50
2022-10-04T10:56:32.646Z,24.51
2022-10-04T10:57:32.863Z,24.54
2022-10-04T10:58:32.998Z,24.57
2022-10-04T10:59:33.191Z,24.58
2022-10-04T11:00:33.327Z,24.58
2022-10-04T11:01:33.610Z,24.60
2022-10-04T11:02:48.802Z,24.65
2022-10-04T11:03:34.956Z,24.70
2022-10-04T11:04:34.008Z,24.69
2022-10-04T11:05:34.187Z,24.70
2022-10-04T11:06:34.351Z,24.70
2022-10-04T11:07:34.538Z,24.66
2022-10-04T11:08:34.698Z,24.60
2022-10-04T11:09:34.857Z,24.61
2022-10-04T11:10:35.037Z,24.54
2022-10-04T11:11:35.248Z,24.51
2022-10-04T11:12:35.385Z,24.53
2022-10-04T11:13:35.554Z,24.57
2022-10-04T11:14:35.687Z,24.61
2022-10-04T11:15:35.876Z,24.66
2022-10-04T11:16:36.038Z,24.69
2022-10-04T11:17:36.248Z,24.65
2022-10-04T11:18:36.380Z,24.63
2022-10-04T11:19:36.549Z,24.61
2022-10-04T11:20:36.711Z,24.53
2022-10-04T11:21:36.882Z,24.48
2022-10-04T11:22:38.535Z,24.47
2022-10-04T11:23:37.240Z,24.42
2022-10-04T11:24:37.410Z,24.30
2022-10-04T11:25:37.610Z,24.23
2022-10-04T11:26:37.812Z,24.13
2022-10-04T11:27:37.948Z,24.03
2022-10-04T11:28:38.178Z,24.03
2022-10-04T11:29:38.326Z,24.01
2022-10-04T11:30:38.481Z,23.95
2022-10-04T11:31:38.686Z,23.99
2022-10-04T11:32:38.812Z,24.03
2022-10-04T11:33:38.982Z,24.14
2022-10-04T11:34:39.150Z,24.29
2022-10-04T11:35:39.319Z,24.38
2022-10-04T11:36:39.492Z,24.47
2022-10-04T11:37:39.723Z,24.58
2022-10-04T11:38:39.831Z,24.74
2022-10-04T11:39:42.540Z,24.84
2022-10-04T11:40:40.181Z,24.89
2022-10-04T11:41:40.371Z,24.91
2022-10-04T11:42:40.541Z,25.03
2022-10-04T11:43:40.707Z,25.07
2022-10-04T11:44:40.861Z,25.10
2022-10-04T11:45:41.042Z,25.13
2022-10-04T11:46:41.249Z,25.11
2022-10-04T11:47:41.393Z,25.08
2022-10-04T11:48:41.533Z,25.04
2022-10-04T11:49:41.740Z,24.95
2022-10-04T11:50:41.909Z,24.89
2022-10-04T11:51:42.092Z,24.78
2022-10-04T11:52:42.282Z,24.58
2022-10-04T11:53:42.448Z,24.42
2022-10-04T11:54:42.616Z,24.36
2022-10-04T11:55:42.754Z,24.33
2022-10-04T11:56:43.356Z,24.32
2022-10-04T11:57:43.122Z,24.35
2022-10-04T11:58:43.255Z,24.39
2022-10-04T11:59:43.451Z,24.36
2022-10-04T12:00:43.655Z,24.35
2022-10-04T12:01:43.785Z,24.35
2022-10-04T12:02:44.024Z,24.36
2022-10-04T12:03:44.185Z,24.38
2022-10-04T12:04:44.323Z,24.40
2022-10-04T12:05:44.457Z,24.39
2022-10-04T12:06:44.876Z,24.42
2022-10-04T12:07:44.846Z,24.42
2022-10-04T12:08:45.000Z,24.40
2022-10-04T12:09:45.217Z,24.36
2022-10-04T12:10:45.315Z,24.23
2022-10-04T12:11:45.555Z,24.14
2022-10-04T12:12:45.706Z,24.14
2022-10-04T12:13:45.865Z,24.13
2022-10-04T12:14:46.053Z,24.11
2022-10-04T12:15:46.255Z,24.11
2022-10-04T12:16:46.648Z,24.14
2022-10-04T12:17:46.587Z,24.14
2022-10-04T12:18:46.729Z,24.08
2022-10-04T12:19:46.920Z,24.06
2022-10-04T12:20:47.068Z,24.06
2022-10-04T12:21:47.248Z,24.01
2022-10-04T12:22:47.448Z,23.95
2022-10-04T12:23:47.609Z,23.92
2022-10-04T12:24:47.755Z,23.92
2022-10-04T12:25:47.936Z,23.93
2022-10-04T12:26:48.294Z,23.99
2022-10-04T12:27:48.327Z,24.01
2022-10-04T12:28:48.457Z,24.06
2022-10-04T12:29:48.650Z,24.10
2022-10-04T12:30:48.857Z,24.14
2022-10-04T12:31:49.062Z,24.17
2022-10-04T12:32:50.628Z,24.21
2022-10-04T12:33:49.328Z,24.23
2022-10-04T12:34:49.499Z,24.29
2022-10-04T12:35:49.680Z,24.35
2022-10-04T12:36:49.858Z,24.42
2022-10-04T12:37:50.071Z,24.51
2022-10-04T12:38:50.209Z,24.55
2022-10-04T12:39:50.388Z,24.57
2022-10-04T12:40:50.569Z,24.55
2022-10-04T12:41:50.770Z,24.54
2022-10-04T12:42:50.957Z,24.47
2022-10-04T12:43:51.080Z,24.39
2022-10-04T12:44:51.269Z,24.33
2022-10-04T12:45:51.499Z,24.26
2022-10-04T12:46:51.649Z,24.18
2022-10-04T12:47:51.890Z,24.16
2022-10-04T12:48:52.021Z,24.16
2022-10-04T12:49:52.208Z,24.18
2022-10-04T12:50:52.393Z,24.28
2022-10-04T12:51:52.582Z,24.30
2022-10-04T12:52:52.771Z,24.30
2022-10-04T12:53:57.866Z,24.36
2022-10-04T12:54:54.138Z,24.38